Time;durP1;ratioP1;P1;durP2;ratioP2;P2;SDS_P1;SDS_P2;PMS_P1;PMS_P2;Temp;Humidity;BMP_temperature;BMP_pressure;BME280_temperature;BME280_humidity;BME280_pressure;Samples;Min_cycle;Max_cycle;Signal;HPM_P1;HPM_P2
2024/01/17 00:00:17;;;;;;;12.88;11.25;;;;;;;-3.25;73.41;96712.31;5049857;28;20832;-72
2024/01/17 00:02:45;;;;;;;11.88;10.63;;;;;;;-3.30;73.42;96706.63;5046491;28;20197;-72
2024/01/17 00:05:12;;;;;;;17.90;11.23;;;;;;;-3.46;73.64;96699.34;5037677;28;20209;-71
2024/01/17 00:07:38;;;;;;;15.10;11.80;;;;;;;-3.38;73.66;96698.59;5038794;28;20201;-71
2024/01/17 00:10:05;;;;;;;14.13;10.80;;;;;;;-3.44;73.79;96692.09;5042496;28;20197;-72
2024/01/17 00:12:32;;;;;;;10.93;9.60;;;;;;;-3.28;73.39;96691.44;5040169;28;20235;-71
2024/01/17 00:14:58;;;;;;;13.18;11.43;;;;;;;-3.46;73.85;96701.97;5042888;28;20201;-72
2024/01/17 00:17:25;;;;;;;11.40;10.00;;;;;;;-3.54;74.24;96688.66;5043371;28;20204;-72
2024/01/17 00:19:54;;;;;;;11.13;9.95;;;;;;;-3.35;73.94;96679.78;5041360;28;20209;-71
2024/01/17 00:22:20;;;;;;;14.38;10.32;;;;;;;-3.53;74.57;96686.84;5045237;28;20217;-70
2024/01/17 00:24:48;;;;;;;16.00;10.70;;;;;;;-3.57;74.64;96678.38;5047808;28;20740;-71
2024/01/17 00:27:16;;;;;;;11.50;9.73;;;;;;;-3.68;75.16;96683.06;5043506;28;20267;-71
2024/01/17 00:29:43;;;;;;;11.93;10.70;;;;;;;-3.88;76.03;96684.94;5047429;28;20260;-71
2024/01/17 00:32:09;;;;;;;13.95;9.98;;;;;;;-3.77;75.71;96679.47;5049243;28;20224;-71
2024/01/17 00:34:36;;;;;;;14.55;11.40;;;;;;;-3.78;75.62;96683.09;5048209;28;20204;-71
2024/01/17 00:37:06;;;;;;;16.98;11.15;;;;;;;-3.70;75.39;96680.56;5048642;28;20543;-71
2024/01/17 00:39:32;;;;;;;12.48;10.93;;;;;;;-3.76;75.32;96686.44;5042163;28;20209;-71
2024/01/17 00:41:59;;;;;;;14.20;10.75;;;;;;;-3.72;75.38;96664.84;5065581;28;20204;-71
2024/01/17 00:44:27;;;;;;;13.93;10.40;;;;;;;-3.74;75.48;96668.63;5049742;28;20243;-71
2024/01/17 00:46:53;;;;;;;18.08;11.85;;;;;;;-3.73;75.75;96655.25;5048987;28;20209;-71
2024/01/17 00:49:20;;;;;;;14.60;10.75;;;;;;;-3.79;75.65;96649.72;5045347;28;20255;-72
2024/01/17 00:51:46;;;;;;;14.85;10.55;;;;;;;-3.73;75.73;96659.72;5062061;28;20692;-71
2024/01/17 00:54:14;;;;;;;14.55;11.50;;;;;;;-3.81;75.94;96654.34;5044479;28;20231;-71
2024/01/17 00:56:41;;;;;;;17.05;11.15;;;;;;;-3.70;75.82;96640.91;5049003;28;20214;-71
2024/01/17 00:59:07;;;;;;;14.63;11.38;;;;;;;-3.71;75.81;96639.25;5046832;28;21502;-72
2024/01/17 01:01:34;;;;;;;16.58;11.63;;;;;;;-3.67;75.63;96640.63;5049470;28;20190;-71
2024/01/17 01:04:00;;;;;;;14.73;12.00;;;;;;;-3.64;76.00;96632.41;5048619;28;20663;-72
2024/01/17 01:06:27;;;;;;;14.00;11.52;;;;;;;-3.56;75.63;96635.09;5049087;28;20198;-72
2024/01/17 01:08:54;;;;;;;16.40;11.82;;;;;;;-3.55;75.87;96639.41;5048819;28;20209;-71
2024/01/17 01:11:21;;;;;;;16.10;12.15;;;;;;;-3.61;76.04;96642.69;5047168;28;20225;-71
2024/01/17 01:13:48;;;;;;;13.18;11.70;;;;;;;-3.42;75.73;96649.63;5047144;28;20635;-71
2024/01/17 01:16:14;;;;;;;16.52;11.85;;;;;;;-3.47;75.48;96654.53;5050206;28;20284;-71
2024/01/17 01:18:41;;;;;;;18.85;11.45;;;;;;;-3.36;75.51;96658.78;5047996;28;20562;-72
2024/01/17 01:21:07;;;;;;;16.33;12.50;;;;;;;-3.37;75.27;96650.03;5061294;28;20273;-71
2024/01/17 01:23:34;;;;;;;16.85;11.65;;;;;;;-3.39;75.62;96647.53;5044021;28;20211;-71
2024/01/17 01:26:00;;;;;;;14.45;11.75;;;;;;;-3.38;75.23;96638.63;5048756;28;20904;-71
2024/01/17 01:28:28;;;;;;;15.70;12.00;;;;;;;-3.52;75.79;96638.28;5048602;28;20219;-71
2024/01/17 01:30:55;;;;;;;15.13;12.23;;;;;;;-3.40;75.68;96637.09;5045095;28;20197;-71
2024/01/17 01:33:22;;;;;;;13.93;11.98;;;;;;;-3.43;75.53;96640.03;5047110;28;20207;-72
2024/01/17 01:35:49;;;;;;;16.20;12.00;;;;;;;-3.47;75.80;96631.56;5045053;28;20193;-71
2024/01/17 01:38:14;;;;;;;14.73;12.35;;;;;;;-3.41;75.67;96625.69;5048896;28;20200;-71
2024/01/17 01:40:42;;;;;;;16.47;11.33;;;;;;;-3.35;75.54;96624.25;5048294;28;20575;-70
2024/01/17 01:43:19;;;;;;;17.02;12.57;;;;;;;-3.27;75.33;96623.50;5047071;28;20211;-71
2024/01/17 01:45:58;;;;;;;14.52;11.35;;;;;;;-3.38;75.88;96616.63;5062365;28;20196;-71
2024/01/17 01:48:25;;;;;;;18.27;13.00;;;;;;;-3.50;75.93;96601.97;5046234;28;20774;-72
2024/01/17 01:50:52;;;;;;;15.02;12.32;;;;;;;-3.55;76.55;96605.03;5044351;28;20206;-71
2024/01/17 01:53:18;;;;;;;16.77;12.05;;;;;;;-3.49;76.51;96593.88;5046793;28;20232;-71
2024/01/17 01:55:45;;;;;;;15.23;12.00;;;;;;;-3.41;76.12;96587.84;5047561;28;20205;-72
2024/01/17 01:58:12;;;;;;;14.60;12.80;;;;;;;-3.44;76.42;96569.63;5048648;28;20193;-72
2024/01/17 02:00:39;;;;;;;22.92;12.73;;;;;;;-3.43;76.19;96577.41;5045040;28;20284;-72
2024/01/17 02:03:07;;;;;;;16.92;12.73;;;;;;;-3.41;76.30;96570.16;5043518;28;20198;-71
2024/01/17 02:05:34;;;;;;;18.60;13.13;;;;;;;-3.57;76.54;96562.06;5046021;28;20209;-71
2024/01/17 02:08:00;;;;;;;14.90;11.82;;;;;;;-3.25;76.30;96563.34;5045998;28;20213;-72
2024/01/17 02:10:27;;;;;;;16.00;12.68;;;;;;;-3.20;75.86;96566.34;5048059;28;20220;-71
2024/01/17 02:12:53;;;;;;;16.77;12.52;;;;;;;-3.24;76.00;96562.34;5046632;28;20633;-71
2024/01/17 02:15:20;;;;;;;15.43;12.82;;;;;;;-3.43;76.16;96553.63;5046140;28;20209;-71
2024/01/17 02:17:46;;;;;;;14.65;11.73;;;;;;;-3.48;76.68;96547.94;5046295;28;20194;-71
2024/01/17 02:20:14;;;;;;;15.55;12.52;;;;;;;-3.50;77.18;96541.97;5047239;28;20201;-71
2024/01/17 02:22:40;;;;;;;16.40;12.82;;;;;;;-3.39;76.63;96536.47;5044030;28;20566;-71
2024/01/17 02:25:08;;;;;;;15.23;12.45;;;;;;;-3.35;76.60;96536.16;5047346;28;20205;-71
2024/01/17 02:27:35;;;;;;;15.27;12.85;;;;;;;-3.32;76.92;96535.84;5046799;28;20556;-72
2024/01/17 02:30:02;;;;;;;18.45;13.18;;;;;;;-3.44;76.61;96530.81;5046736;28;20220;-71
2024/01/17 02:32:28;;;;;;;17.42;11.90;;;;;;;-3.33;76.94;96523.63;5046597;28;20221;-71
2024/01/17 02:34:55;;;;;;;18.92;12.50;;;;;;;-3.19;76.78;96525.69;5033132;28;20220;-70
2024/01/17 02:37:22;;;;;;;14.43;12.45;;;;;;;-3.16;76.35;96520.91;5041125;28;20305;-72
2024/01/17 02:39:49;;;;;;;14.07;12.45;;;;;;;-3.06;76.36;96520.84;5039579;28;20271;-71
2024/01/17 02:42:17;;;;;;;16.20;13.68;;;;;;;-3.01;76.26;96518.56;5046755;28;20197;-71
2024/01/17 02:44:43;;;;;;;14.90;12.48;;;;;;;-2.87;76.07;96514.47;5047716;28;20500;-72
2024/01/17 02:47:10;;;;;;;14.65;12.02;;;;;;;-2.97;75.75;96506.69;5042887;28;20213;-71
2024/01/17 02:49:36;;;;;;;17.05;12.70;;;;;;;-2.86;75.91;96494.97;5045603;28;20219;-72
2024/01/17 02:52:03;;;;;;;12.65;11.13;;;;;;;-2.92;76.15;96498.28;5047777;28;20233;-72
2024/01/17 02:54:30;;;;;;;18.42;13.75;;;;;;;-2.93;76.24;96486.84;5045049;28;20243;-71
2024/01/17 02:56:56;;;;;;;14.57;11.43;;;;;;;-2.92;75.97;96483.19;5047654;28;20555;-71
2024/01/17 02:59:24;;;;;;;15.85;12.60;;;;;;;-2.78;76.08;96479.97;5046269;28;20201;-72
2024/01/17 03:01:53;;;;;;;18.55;12.60;;;;;;;-2.76;75.79;96480.66;5049169;28;20262;-72
2024/01/17 03:04:20;;;;;;;17.92;13.10;;;;;;;-2.56;75.06;96480.38;5047609;28;20209;-71
2024/01/17 03:06:49;;;;;;;16.05;12.57;;;;;;;-2.75;75.67;96471.72;5040726;28;20221;-72
2024/01/17 03:09:15;;;;;;;16.95;13.07;;;;;;;-3.00;76.17;96471.75;5046472;28;20213;-71
2024/01/17 03:11:42;;;;;;;16.52;11.80;;;;;;;-3.08;76.79;96464.59;5050669;28;20197;-72
2024/01/17 03:14:08;;;;;;;15.27;11.45;;;;;;;-3.08;76.72;96464.59;5046614;28;20208;-71
2024/01/17 03:16:36;;;;;;;12.82;11.38;;;;;;;-2.88;76.46;96465.19;5048175;28;20241;-71
2024/01/17 03:19:03;;;;;;;15.00;12.32;;;;;;;-2.68;75.84;96458.69;5048643;28;20205;-72
2024/01/17 03:21:29;;;;;;;18.17;11.73;;;;;;;-2.59;75.56;96460.34;5051383;28;20197;-72
2024/01/17 03:23:58;;;;;;;16.23;11.80;;;;;;;-2.41;75.22;96447.03;5047811;28;20197;-70
2024/01/17 03:26:24;;;;;;;15.43;12.48;;;;;;;-2.73;75.13;96443.28;5052657;28;20258;-71
2024/01/17 03:28:51;;;;;;;15.05;12.50;;;;;;;-2.93;76.30;96441.03;5048713;28;20205;-71
2024/01/17 03:31:17;;;;;;;16.38;13.50;;;;;;;-2.75;76.53;96447.91;5050638;28;20211;-71
2024/01/17 03:33:45;;;;;;;16.30;11.60;;;;;;;-2.73;76.63;96442.44;5048854;28;20690;-71
2024/01/17 03:36:12;;;;;;;13.30;11.45;;;;;;;-2.71;77.43;96441.28;5047668;28;20205;-71
2024/01/17 03:38:39;;;;;;;15.77;12.52;;;;;;;-2.73;77.57;96437.97;5049899;28;20209;-71
2024/01/17 03:41:07;;;;;;;14.05;12.02;;;;;;;-2.89;78.79;96437.91;5047400;28;20207;-71
2024/01/17 03:43:33;;;;;;;18.90;13.90;;;;;;;-2.86;79.73;96437.59;5050178;28;20293;-71
2024/01/17 03:46:01;;;;;;;15.18;12.90;;;;;;;-2.75;79.72;96442.59;5033617;28;20571;-72
2024/01/17 03:48:27;;;;;;;16.42;12.50;;;;;;;-2.83;79.84;96433.78;5051893;28;20288;-72
2024/01/17 03:50:55;;;;;;;18.30;13.52;;;;;;;-2.81;80.42;96427.34;5044402;28;20213;-72
2024/01/17 03:53:22;;;;;;;17.88;13.38;;;;;;;-2.80;80.68;96418.44;5052663;28;20221;-71
2024/01/17 03:55:48;;;;;;;19.38;13.57;;;;;;;-2.92;81.47;96411.75;5050801;28;20228;-72
2024/01/17 03:58:15;;;;;;;14.23;12.63;;;;;;;-2.92;82.01;96406.47;5061892;28;20209;-71
2024/01/17 04:00:41;;;;;;;16.10;13.65;;;;;;;-2.91;82.39;96400.19;5049662;28;20285;-71
2024/01/17 04:03:11;;;;;;;17.42;14.02;;;;;;;-2.88;82.40;96401.69;5047899;28;20202;-71
2024/01/17 04:05:38;;;;;;;15.57;12.65;;;;;;;-2.92;82.87;96387.94;5066220;28;20259;-71
2024/01/17 04:08:07;;;;;;;16.27;13.10;;;;;;;-2.86;83.16;96382.00;5044497;28;20212;-71
2024/01/17 04:10:33;;;;;;;19.40;14.80;;;;;;;-2.83;83.31;96378.22;5047200;28;20254;-71
2024/01/17 04:13:00;;;;;;;19.17;13.05;;;;;;;-2.68;82.95;96352.78;5049672;28;20217;-72
2024/01/17 04:15:27;;;;;;;17.67;14.35;;;;;;;-2.61;82.66;96345.03;5032942;28;20208;-71
2024/01/17 04:17:53;;;;;;;16.73;13.30;;;;;;;-2.61;82.53;96335.28;5047777;28;20197;-71
2024/01/17 04:20:19;;;;;;;16.40;13.60;;;;;;;-2.49;82.56;96335.78;5047030;28;20552;-71
2024/01/17 04:22:47;;;;;;;17.48;14.15;;;;;;;-2.64;82.78;96321.53;5046931;28;20201;-72
2024/01/17 04:25:15;;;;;;;15.40;13.50;;;;;;;-2.57;83.19;96317.22;5051966;28;20285;-72
2024/01/17 04:27:41;;;;;;;18.67;15.15;;;;;;;-2.44;82.59;96312.28;5061072;28;20308;-72
2024/01/17 04:30:11;;;;;;;19.40;14.57;;;;;;;-2.56;83.14;96308.28;5049736;28;20197;-71
2024/01/17 04:32:38;;;;;;;20.92;16.15;;;;;;;-2.67;83.73;96296.22;5043514;28;20221;-71
2024/01/17 04:35:06;;;;;;;18.70;15.63;;;;;;;-2.66;84.45;96305.81;5047904;28;20205;-72
2024/01/17 04:37:32;;;;;;;23.10;17.63;;;;;;;-2.74;85.06;96300.50;5045044;28;20216;-71
2024/01/17 04:39:59;;;;;;;18.85;15.70;;;;;;;-2.77;85.71;96293.72;5050746;28;20512;-72
2024/01/17 04:42:27;;;;;;;19.00;15.40;;;;;;;-2.89;85.73;96295.00;5048787;28;20266;-71
2024/01/17 04:44:53;;;;;;;20.33;16.88;;;;;;;-2.83;86.84;96294.34;5048175;28;20209;-71
2024/01/17 04:47:20;;;;;;;19.67;15.20;;;;;;;-2.76;87.03;96278.66;5048735;28;20755;-71
2024/01/17 04:49:47;;;;;;;22.73;17.67;;;;;;;-2.76;86.95;96271.53;5047974;28;20197;-71
2024/01/17 04:52:16;;;;;;;27.27;18.42;;;;;;;-2.62;87.17;96262.13;5042052;28;20213;-71
2024/01/17 04:54:42;;;;;;;20.65;18.15;;;;;;;-2.72;87.30;96270.22;5047243;28;20193;-71
2024/01/17 04:57:09;;;;;;;22.33;18.75;;;;;;;-2.58;87.65;96268.72;5043993;28;20201;-71
2024/01/17 04:59:37;;;;;;;20.48;17.23;;;;;;;-2.64;87.57;96269.41;5046919;28;20204;-71
2024/01/17 05:02:04;;;;;;;25.05;18.88;;;;;;;-2.59;87.31;96264.44;5043620;28;20571;-72
2024/01/17 05:04:31;;;;;;;23.60;18.55;;;;;;;-2.64;87.39;96258.00;5047630;28;20225;-72
2024/01/17 05:06:58;;;;;;;22.10;17.30;;;;;;;-2.50;87.74;96252.03;5045331;28;20247;-72
2024/01/17 05:09:24;;;;;;;25.08;18.88;;;;;;;-2.48;87.60;96242.09;5049106;28;20300;-72
2024/01/17 05:11:51;;;;;;;25.73;17.80;;;;;;;-2.38;87.57;96234.81;5043476;28;20204;-72
2024/01/17 05:14:17;;;;;;;25.20;20.08;;;;;;;-2.33;88.16;96227.22;5047429;28;20217;-72
2024/01/17 05:16:45;;;;;;;24.48;19.05;;;;;;;-2.23;87.89;96222.53;5044721;28;20205;-72
2024/01/17 05:19:12;;;;;;;25.20;19.38;;;;;;;-2.19;88.16;96220.38;5047797;28;20197;-70
2024/01/17 05:21:38;;;;;;;22.55;19.17;;;;;;;-2.14;88.31;96210.94;5042016;28;20659;-72
2024/01/17 05:24:06;;;;;;;23.70;19.92;;;;;;;-2.14;87.78;96205.63;5045896;28;20216;-78
2024/01/17 05:26:33;;;;;;;26.67;19.42;;;;;;;-2.15;88.29;96201.34;5048085;28;20205;-79
2024/01/17 05:28:59;;;;;;;28.48;21.35;;;;;;;-2.37;88.69;96188.81;5044596;28;20217;-78
2024/01/17 05:31:26;;;;;;;27.38;21.40;;;;;;;-2.39;89.66;96180.19;5046630;28;20296;-77
2024/01/17 05:33:54;;;;;;;24.05;19.90;;;;;;;-2.14;90.09;96168.53;5048236;28;20224;-77
2024/01/17 05:36:20;;;;;;;25.23;20.88;;;;;;;-2.08;90.00;96159.09;5061611;28;20205;-78
2024/01/17 05:38:47;;;;;;;27.73;20.70;;;;;;;-2.08;90.12;96157.28;5045319;28;20211;-78
2024/01/17 05:41:14;;;;;;;29.83;23.70;;;;;;;-2.04;90.57;96140.03;5046217;28;20292;-78
2024/01/17 05:43:40;;;;;;;31.08;22.23;;;;;;;-1.90;90.81;96146.44;5056199;28;20200;-76
2024/01/17 05:46:08;;;;;;;26.73;19.85;;;;;;;-1.67;90.51;96133.25;5025602;28;20201;-76
2024/01/17 05:48:35;;;;;;;27.10;21.73;;;;;;;-1.50;90.08;96136.63;5041265;28;20212;-75
2024/01/17 05:51:04;;;;;;;25.33;22.42;;;;;;;-1.39;89.12;96134.44;5042098;28;20208;-76
2024/01/17 05:53:30;;;;;;;21.35;18.90;;;;;;;-0.70;89.81;96115.81;5041365;28;20226;-72
2024/01/17 05:55:57;;;;;;;27.55;20.65;;;;;;;-0.85;87.68;96113.13;5045093;28;20189;-74
2024/01/17 05:58:24;;;;;;;26.40;21.17;;;;;;;-0.92;87.44;96111.34;5039718;28;20234;-75
2024/01/17 06:00:51;;;;;;;24.00;21.00;;;;;;;-1.00;87.91;96106.13;5055153;28;20227;-74
2024/01/17 06:03:18;;;;;;;27.45;22.85;;;;;;;-0.95;87.92;96096.59;5045010;28;20197;-73
2024/01/17 06:05:46;;;;;;;30.23;21.33;;;;;;;-0.98;88.12;96098.81;5046336;28;20189;-77
2024/01/17 06:08:14;;;;;;;25.23;20.45;;;;;;;-1.10;88.42;96093.09;5047345;28;20255;-74
2024/01/17 06:10:41;;;;;;;26.77;19.88;;;;;;;-0.95;88.18;96085.97;5043303;28;20874;-74
2024/01/17 06:13:09;;;;;;;28.70;19.75;;;;;;;-0.90;88.64;96082.78;5049285;28;20225;-74
2024/01/17 06:15:35;;;;;;;29.85;23.35;;;;;;;-0.84;88.14;96080.25;5045948;28;20211;-74
2024/01/17 06:18:02;;;;;;;29.65;21.02;;;;;;;-0.87;88.48;96072.66;5040002;28;20198;-77
2024/01/17 06:20:28;;;;;;;27.23;21.45;;;;;;;-1.01;88.99;96070.81;5042056;28;20240;-75
2024/01/17 06:22:55;;;;;;;30.85;22.40;;;;;;;-0.91;89.06;96060.72;5043523;28;20284;-73
2024/01/17 06:25:26;;;;;;;30.35;21.55;;;;;;;-0.98;89.60;96061.66;5046474;28;20202;-77
2024/01/17 06:27:54;;;;;;;28.23;23.67;;;;;;;-1.13;90.70;96051.81;5047773;28;20220;-77
2024/01/17 06:30:20;;;;;;;31.73;23.35;;;;;;;-1.07;90.36;96050.28;5045054;28;20674;-78
2024/01/17 06:32:48;;;;;;;30.77;23.45;;;;;;;-1.11;90.67;96038.38;5045693;28;20587;-77
2024/01/17 06:35:15;;;;;;;25.75;22.00;;;;;;;-1.12;91.21;96036.72;5025928;28;20216;-77
2024/01/17 06:37:42;;;;;;;34.20;26.42;;;;;;;-1.06;91.13;96036.81;5048934;28;20289;-78
2024/01/17 06:40:10;;;;;;;32.85;23.67;;;;;;;-1.04;91.83;96028.69;5046158;28;20220;-75
2024/01/17 06:42:39;;;;;;;41.55;27.42;;;;;;;-0.95;91.64;96019.63;5037594;28;20207;-77
2024/01/17 06:45:07;;;;;;;35.65;24.92;;;;;;;-0.90;91.71;96019.91;5050196;28;20284;-78
2024/01/17 06:47:33;;;;;;;36.33;27.20;;;;;;;-1.00;92.09;96007.91;5055024;28;20284;-76
2024/01/17 06:50:00;;;;;;;30.90;24.98;;;;;;;-0.93;92.00;96009.66;5051211;28;20205;-76
2024/01/17 06:52:27;;;;;;;29.85;24.25;;;;;;;-0.89;92.38;96008.28;5066372;28;20229;-77
2024/01/17 06:54:54;;;;;;;34.33;22.40;;;;;;;-0.81;92.08;96004.72;5051056;28;20224;-77
2024/01/17 06:57:20;;;;;;;30.95;25.40;;;;;;;-0.84;92.66;96003.25;5050397;28;20207;-77
2024/01/17 06:59:48;;;;;;;28.20;24.52;;;;;;;-0.69;92.44;95990.84;5046928;28;20209;-77
2024/01/17 07:02:15;;;;;;;34.80;26.23;;;;;;;-0.83;92.02;95988.97;5050637;28;20205;-77
2024/01/17 07:04:42;;;;;;;35.05;26.58;;;;;;;-0.88;92.49;95996.66;5052137;28;20197;-76
2024/01/17 07:07:08;;;;;;;34.00;26.85;;;;;;;-0.94;93.43;95992.06;5050265;28;20197;-76
2024/01/17 07:09:35;;;;;;;37.25;28.92;;;;;;;-0.98;94.04;95980.19;5049130;28;20544;-77
2024/01/17 07:12:02;;;;;;;36.03;27.45;;;;;;;-1.01;94.17;95977.91;5051523;28;20223;-77
2024/01/17 07:14:29;;;;;;;38.15;27.08;;;;;;;-0.87;94.30;95966.44;5031798;28;20218;-78
2024/01/17 07:16:57;;;;;;;34.22;25.60;;;;;;;-0.85;94.17;95967.09;5044862;28;20205;-77
2024/01/17 07:19:23;;;;;;;39.22;28.58;;;;;;;-1.02;94.42;95973.59;5045796;28;20217;-79
2024/01/17 07:21:50;;;;;;;35.80;27.45;;;;;;;-0.99;95.42;95973.22;5065602;28;20202;-77
2024/01/17 07:24:17;;;;;;;36.35;26.38;;;;;;;-0.94;95.42;95960.22;5044871;28;20532;-77
2024/01/17 07:26:44;;;;;;;33.20;25.95;;;;;;;-0.84;95.80;95955.47;5049818;28;20235;-77
2024/01/17 07:29:10;;;;;;;33.67;27.83;;;;;;;-0.72;95.15;95954.00;5045442;28;20292;-78
2024/01/17 07:31:38;;;;;;;37.03;27.92;;;;;;;-0.83;95.46;95957.13;5049361;28;20204;-77
2024/01/17 07:34:06;;;;;;;33.95;26.70;;;;;;;-0.62;95.12;95953.72;5037604;28;20256;-77
2024/01/17 07:36:33;;;;;;;36.65;28.17;;;;;;;-0.46;94.86;95958.00;5051746;28;20204;-77
2024/01/17 07:38:59;;;;;;;33.38;25.77;;;;;;;-0.51;94.58;95944.47;5049773;28;20676;-77
2024/01/17 07:41:26;;;;;;;32.67;26.67;;;;;;;-0.51;94.80;95942.63;5047840;28;20206;-76
2024/01/17 07:43:53;;;;;;;39.05;29.40;;;;;;;-0.39;94.56;95932.38;5049978;28;20545;-77
2024/01/17 07:46:19;;;;;;;34.92;28.85;;;;;;;-0.48;94.75;95928.97;5054019;28;20197;-77
2024/01/17 07:48:46;;;;;;;35.80;27.70;;;;;;;-0.43;94.58;95923.13;5047693;28;20630;-77
2024/01/17 07:51:14;;;;;;;36.88;28.27;;;;;;;-0.47;95.30;95921.84;5044255;28;20205;-77
2024/01/17 07:53:40;;;;;;;36.63;28.42;;;;;;;-0.27;95.37;95914.91;5049271;28;20720;-77
2024/01/17 07:56:07;;;;;;;36.13;27.33;;;;;;;-0.30;95.27;95909.13;5049908;28;20201;-77
2024/01/17 07:58:34;;;;;;;36.97;29.70;;;;;;;-0.45;95.77;95911.84;5046446;28;20209;-77
2024/01/17 08:01:00;;;;;;;37.17;28.02;;;;;;;-0.35;96.49;95910.56;5046211;28;20223;-77
2024/01/17 08:03:27;;;;;;;41.50;29.63;;;;;;;-0.31;96.43;95912.81;5048780;28;20201;-77
2024/01/17 08:05:53;;;;;;;43.25;29.77;;;;;;;-0.28;96.69;95907.13;5035367;28;20197;-76
2024/01/17 08:08:21;;;;;;;44.50;29.77;;;;;;;-0.37;96.99;95904.59;5050551;28;20205;-78
2024/01/17 08:10:48;;;;;;;42.63;30.48;;;;;;;-0.25;97.29;95907.56;5048900;28;20675;-76
2024/01/17 08:13:17;;;;;;;45.42;30.70;;;;;;;-0.24;97.70;95903.91;5047157;28;20193;-77
2024/01/17 08:15:43;;;;;;;39.75;30.80;;;;;;;-0.20;98.17;95891.88;5045661;28;20307;-76
2024/01/17 08:18:10;;;;;;;40.67;28.73;;;;;;;-0.17;98.09;95894.16;5049830;28;20203;-77
2024/01/17 08:20:38;;;;;;;46.72;33.95;;;;;;;-0.10;98.17;95879.13;5047081;28;20212;-77
2024/01/17 08:23:05;;;;;;;43.30;34.30;;;;;;;0.04;98.24;95882.72;5046111;28;20194;-76
2024/01/17 08:25:33;;;;;;;49.13;32.25;;;;;;;0.03;97.82;95866.94;5047865;28;20197;-77
2024/01/17 08:28:00;;;;;;;48.22;31.08;;;;;;;0.24;97.52;95869.63;5049343;28;20299;-77
2024/01/17 08:30:27;;;;;;;48.47;32.72;;;;;;;0.18;97.04;95878.34;5045721;28;20205;-76
2024/01/17 08:32:53;;;;;;;41.83;31.08;;;;;;;0.28;97.09;95865.56;5041825;28;20215;-77
2024/01/17 08:35:21;;;;;;;46.97;32.30;;;;;;;0.09;97.07;95859.03;5043436;28;21212;-77
2024/01/17 08:37:48;;;;;;;48.50;34.00;;;;;;;0.15;97.70;95860.13;5050774;28;20205;-77
2024/01/17 08:40:15;;;;;;;45.95;34.42;;;;;;;0.25;97.73;95845.50;5043864;28;20211;-78
2024/01/17 08:42:45;;;;;;;51.05;36.00;;;;;;;0.34;97.39;95844.31;5049317;28;20205;-78
2024/01/17 08:45:12;;;;;;;42.92;33.83;;;;;;;0.39;96.92;95837.59;5047585;28;20204;-76
2024/01/17 08:47:41;;;;;;;45.63;33.53;;;;;;;0.42;96.69;95834.56;5049239;28;20611;-75
2024/01/17 08:50:09;;;;;;;38.10;30.05;;;;;;;0.40;97.16;95829.41;5048538;28;20570;-77
2024/01/17 08:52:36;;;;;;;51.50;36.60;;;;;;;0.41;97.08;95823.09;5044771;28;20567;-80
2024/01/17 08:55:02;;;;;;;45.97;33.38;;;;;;;0.46;97.27;95825.16;5049571;28;20311;-77
2024/01/17 08:57:29;;;;;;;49.47;34.95;;;;;;;0.53;96.97;95816.22;5027741;28;20205;-74
2024/01/17 08:59:57;;;;;;;46.38;35.17;;;;;;;0.52;96.65;95814.56;5045397;28;20194;-73
2024/01/17 09:02:24;;;;;;;45.55;32.60;;;;;;;0.58;96.55;95810.31;5048408;28;20253;-77
2024/01/17 09:04:50;;;;;;;46.22;34.17;;;;;;;0.73;96.48;95811.00;5045827;28;20197;-74
2024/01/17 09:07:17;;;;;;;42.78;31.33;;;;;;;0.72;96.10;95803.22;5046754;28;20200;-73
2024/01/17 09:09:43;;;;;;;43.88;31.58;;;;;;;0.68;96.33;95808.94;5046927;28;20200;-75
2024/01/17 09:12:12;;;;;;;48.17;33.90;;;;;;;0.60;96.50;95782.50;5048243;28;20205;-74
2024/01/17 09:14:41;;;;;;;48.38;36.53;;;;;;;0.53;96.86;95786.94;5044462;28;20220;-73
2024/01/17 09:17:09;;;;;;;55.90;36.22;;;;;;;0.47;97.38;95787.72;5047587;28;20201;-74
2024/01/17 09:19:34;;;;;;;48.60;35.67;;;;;;;0.49;97.67;95783.03;5049419;28;20209;-76
2024/01/17 09:22:01;;;;;;;44.47;32.80;;;;;;;0.54;98.11;95779.78;5040687;28;21876;-75
2024/01/17 09:24:27;;;;;;;48.50;34.55;;;;;;;0.42;98.71;95766.19;5049119;28;20280;-73
2024/01/17 09:26:54;;;;;;;49.15;34.78;;;;;;;0.47;99.25;95766.44;5046654;28;20300;-73
2024/01/17 09:29:21;;;;;;;64.40;40.30;;;;;;;0.42;99.09;95766.19;5049646;28;20201;-73
2024/01/17 09:31:48;;;;;;;60.33;38.28;;;;;;;0.55;99.27;95768.94;5050062;28;20212;-72
2024/01/17 09:34:16;;;;;;;51.42;34.67;;;;;;;0.56;99.33;95756.47;5050426;28;20260;-72
2024/01/17 09:36:42;;;;;;;44.88;34.60;;;;;;;0.67;98.94;95750.56;5046085;28;20190;-72
2024/01/17 09:39:09;;;;;;;48.30;34.15;;;;;;;0.68;99.05;95750.38;5059168;28;20203;-76
2024/01/17 09:41:35;;;;;;;54.58;36.05;;;;;;;0.75;99.01;95744.28;5043784;28;20200;-73
2024/01/17 09:44:02;;;;;;;52.97;37.08;;;;;;;0.76;99.03;95751.22;5041314;28;20277;-73
2024/01/17 09:46:29;;;;;;;49.42;34.40;;;;;;;0.72;99.76;95736.69;5045016;28;20231;-73
2024/01/17 09:48:56;;;;;;;48.67;33.50;;;;;;;0.62;100.00;95735.22;5046622;28;20655;-74
2024/01/17 09:51:24;;;;;;;48.60;35.10;;;;;;;0.72;100.00;95726.84;5064142;28;20197;-74
2024/01/17 09:53:53;;;;;;;53.88;35.30;;;;;;;0.90;100.00;95721.00;5046401;28;20198;-74
2024/01/17 09:56:21;;;;;;;52.90;35.40;;;;;;;0.95;100.00;95718.56;5050719;28;20201;-75
2024/01/17 09:58:49;;;;;;;45.03;33.20;;;;;;;0.98;100.00;95705.66;5049553;28;20201;-74
2024/01/17 10:01:17;;;;;;;47.30;33.50;;;;;;;1.04;100.00;95701.38;5047841;28;20192;-74
2024/01/17 10:03:45;;;;;;;43.40;32.88;;;;;;;1.09;100.00;95696.25;5045690;28;20205;-75
2024/01/17 10:06:18;;;;;;;49.65;34.53;;;;;;;1.01;100.00;95677.78;5043119;28;20673;-75
2024/01/17 10:08:46;;;;;;;40.05;32.30;;;;;;;1.28;100.00;95686.69;5046551;28;20201;-73
2024/01/17 10:11:14;;;;;;;42.30;30.35;;;;;;;1.34;100.00;95675.19;5031505;28;20197;-74
2024/01/17 10:13:41;;;;;;;41.90;29.65;;;;;;;1.52;99.96;95664.78;5046309;28;20210;-76
2024/01/17 10:16:09;;;;;;;36.42;26.80;;;;;;;1.53;99.95;95662.94;5058910;28;20235;-74
2024/01/17 10:18:35;;;;;;;33.00;26.35;;;;;;;1.56;99.91;95652.69;5049184;28;20266;-74
2024/01/17 10:21:03;;;;;;;35.45;28.92;;;;;;;1.57;100.00;95648.16;5048544;28;20200;-74
2024/01/17 10:23:30;;;;;;;31.98;26.20;;;;;;;1.68;100.00;95642.19;5047315;28;20311;-73
2024/01/17 10:25:59;;;;;;;29.73;24.92;;;;;;;1.81;100.00;95628.88;5041143;28;20296;-74
2024/01/17 10:28:25;;;;;;;26.48;23.75;;;;;;;1.82;100.00;95614.50;5039083;28;20236;-76
2024/01/17 10:30:53;;;;;;;30.63;24.48;;;;;;;1.79;100.00;95609.59;5045443;28;20198;-74
2024/01/17 10:33:20;;;;;;;33.13;24.80;;;;;;;1.90;99.86;95605.47;5042788;28;20240;-75
2024/01/17 10:35:48;;;;;;;28.52;23.50;;;;;;;1.95;100.00;95603.00;5042998;28;20832;-75
2024/01/17 10:38:15;;;;;;;28.10;23.50;;;;;;;1.89;100.00;95579.84;5042760;28;20236;-76
2024/01/17 10:40:44;;;;;;;35.05;26.52;;;;;;;1.91;100.00;95577.78;5045168;28;20300;-73
2024/01/17 10:43:13;;;;;;;30.67;23.65;;;;;;;2.03;100.00;95570.75;5044229;28;20201;-75
2024/01/17 10:45:42;;;;;;;29.30;25.05;;;;;;;2.01;99.99;95565.63;5045917;28;20198;-76
2024/01/17 10:48:08;;;;;;;33.78;26.13;;;;;;;2.05;100.00;95562.53;5048412;28;20215;-74
2024/01/17 10:50:35;;;;;;;33.72;24.98;;;;;;;2.09;99.95;95553.09;5046394;28;20207;-76
2024/01/17 10:53:04;;;;;;;32.95;24.77;;;;;;;2.14;100.00;95543.44;5047928;28;20281;-75
2024/01/17 10:55:34;;;;;;;32.67;25.73;;;;;;;2.21;99.57;95538.91;5048142;28;20767;-75
2024/01/17 10:58:01;;;;;;;31.70;25.73;;;;;;;2.12;99.88;95534.00;5062429;28;20296;-74
2024/01/17 11:00:31;;;;;;;30.17;25.13;;;;;;;2.11;100.00;95532.38;5029887;28;20207;-74
2024/01/17 11:02:59;;;;;;;25.95;22.73;;;;;;;2.28;99.55;95528.19;5043145;28;20232;-75
2024/01/17 11:05:27;;;;;;;35.28;27.92;;;;;;;2.22;99.32;95513.88;5044727;28;20189;-74
2024/01/17 11:07:54;;;;;;;33.63;26.27;;;;;;;2.13;99.43;95512.47;5046103;28;20647;-74
2024/01/17 11:10:21;;;;;;;33.85;27.42;;;;;;;2.12;99.47;95504.66;5046523;28;20211;-74
2024/01/17 11:12:47;;;;;;;29.92;23.63;;;;;;;2.13;100.00;95515.13;5048057;28;20202;-73
2024/01/17 11:15:15;;;;;;;34.45;25.98;;;;;;;2.05;100.00;95501.19;5046985;28;20780;-74
2024/01/17 11:17:45;;;;;;;31.40;26.33;;;;;;;2.07;100.00;95483.13;5048472;28;20216;-75